ADDS METAR Data INFO
IDs: Format: Raw Decoded Include TAF

Data at: 0634 UTC 15 Dec 2017

K42J 150615Z AUTO 00000KT 10SM SCT060 13/12 A3005 RMK AO1 TSNO
K42J 150555Z AUTO 00000KT 10SM FEW043 BKN060 13/12 A3005 RMK AO1 TSNO
K42J 150535Z AUTO 00000KT 10SM SCT028 BKN035 BKN043 14/12 A3005 RMK AO1 TSNO
K42J 150515Z AUTO 20003KT 10SM BKN033 BKN060 13/12 A3005 RMK AO1 TSNO
K42J 150455Z AUTO 00000KT 10SM FEW060 13/12 A3006 RMK AO1 TSNO
K42J 150435Z AUTO 00000KT 10SM FEW060 13/12 A3005 RMK AO1 TSNO
K42J 150415Z AUTO 00000KT 10SM BKN060 13/12 A3005 RMK AO1 TSNO
K42J 150355Z AUTO 00000KT 10SM SCT060 13/12 A3007 RMK AO1 TSNO
K42J 150335Z AUTO 00000KT 10SM SCT060 14/12 A3006 RMK AO1 TSNO
K42J 150315Z AUTO 00000KT 10SM OVC060 13/12 A3007 RMK AO1 TSNO
K42J 150255Z AUTO 00000KT 10SM BKN060 13/12 A3006 RMK AO1 TSNO
K42J 150235Z AUTO 00000KT 10SM OVC060 13/12 A3006 RMK AO1 TSNO
K42J 150215Z AUTO 21003KT 10SM BKN060 13/12 A3005 RMK AO1 TSNO
K42J 150155Z AUTO 23003KT 10SM FEW060 14/12 A3005 RMK AO1 TSNO
K42J 150135Z AUTO 00000KT 10SM CLR 14/12 A3005 RMK AO1 TSNO
K42J 150115Z AUTO 00000KT 10SM SCT060 14/12 A3005 RMK AO1 TSNO
K42J 150055Z AUTO 00000KT 10SM BKN060 13/12 A3004 RMK AO1 TSNO
K42J 150035Z AUTO 00000KT 10SM SCT060 13/11 A3004 RMK AO1 TSNO
K42J 150015Z AUTO 00000KT 10SM CLR 13/11 A3004 RMK AO1 TSNO
K42J 142355Z AUTO 00000KT 10SM CLR 13/11 A3003 RMK AO1 TSNO
K42J 142335Z AUTO 00000KT 10SM CLR 13/11 A3003 RMK AO1 TSNO
K42J 142315Z AUTO 00000KT 10SM CLR 14/12 A3003 RMK AO1 TSNO
K42J 142255Z AUTO 29003KT 10SM CLR 16/12 A3001 RMK AO1 TSNO
K42J 142235Z AUTO 00000KT 10SM CLR 17/09 A3000 RMK AO1 TSNO
K42J 142215Z AUTO 29003KT 10SM CLR 18/09 A3000 RMK AO1 TSNO
K42J 142155Z AUTO 27004KT 10SM CLR 19/08 A3001 RMK AO1 TSNO
K42J 142135Z AUTO 26003KT 10SM CLR 19/09 A3000 RMK AO1 TSNO
K42J 142115Z AUTO 22005KT 10SM CLR 19/09 A2998 RMK AO1 TSNO
K42J 142055Z AUTO 22006KT 10SM CLR 19/09 A2998 RMK AO1 TSNO
K42J 142035Z AUTO 20007KT 10SM CLR 19/09 A2998 RMK AO1 TSNO
K42J 142015Z AUTO 20008KT 10SM FEW046 20/09 A2998 RMK AO1 TSNO
K42J 141955Z AUTO 23011G14KT 10SM FEW046 20/08 A2997 RMK AO1 TSNO
K42J 141935Z AUTO 24009KT 10SM CLR 20/08 A2998 RMK AO1 TSNO
K42J 141915Z AUTO 24009G14KT 10SM CLR 20/08 A2998 RMK AO1 TSNO
K42J 141855Z AUTO 24006KT 10SM CLR 20/08 A2999 RMK AO1 TSNO
K42J 141835Z AUTO 26005KT 020V030 10SM CLR 20/08 A2999 RMK AO1 TSNO
K42J 141815Z AUTO 26008KT 10SM CLR 19/08 A2999 RMK AO1 TSNO
K42J 141755Z AUTO 28008KT 10SM CLR 19/08 A3000 RMK AO1 TSNO
K42J 141735Z AUTO 29009KT 10SM CLR 18/08 A3001 RMK AO1 TSNO
K42J 141715Z AUTO 26007KT 10SM FEW080 18/08 A3003 RMK AO1 TSNO
K42J 141655Z AUTO 25007KT 10SM FEW036 FEW080 17/08 A3004 RMK AO1 TSNO
K42J 141635Z AUTO 30006KT 10SM FEW120 17/09 A3006 RMK AO1 TSNO
K42J 141615Z AUTO 26005KT 10SM CLR 16/08 A3006 RMK AO1 TSNO
K42J 141555Z AUTO 26004KT 10SM FEW100 15/09 A3005 RMK AO1 TSNO
K42J 141535Z AUTO 00000KT 10SM FEW100 14/09 A3006 RMK AO1 TSNO
K42J 141515Z AUTO 24003KT 10SM CLR 13/09 A3007 RMK AO1 TSNO
K42J 141455Z AUTO 00000KT 10SM CLR 13/09 A3006 RMK AO1 TSNO
K42J 141435Z AUTO 00000KT 9SM CLR 11/10 A3006 RMK AO1 TSNO
K42J 141415Z AUTO 00000KT 10SM CLR 11/10 A3006 RMK AO1 TSNO
K42J 141355Z AUTO 00000KT 9SM CLR 10/09 A3004 RMK AO1 TSNO
K42J 141335Z AUTO 00000KT 10SM CLR 09/09 A3004 RMK AO1 TSNO
K42J 141315Z AUTO 00000KT 10SM CLR 08/08 A3004 RMK AO1 TSNO
K42J 141255Z AUTO 00000KT 8SM CLR 08/08 A3003 RMK AO1 TSNO
K42J 141235Z AUTO 00000KT 8SM CLR 06/06 A3002 RMK AO1 TSNO
K42J 141215Z AUTO 00000KT 8SM FEW037 06/06 A3001 RMK AO1 TSNO
K42J 141155Z AUTO 00000KT 10SM BKN035 06/06 A3001 RMK AO1 TSNO
K42J 141135Z AUTO 00000KT 10SM FEW035 06/06 A3000 RMK AO1 TSNO
K42J 141115Z AUTO 00000KT 10SM CLR 05/05 A3001 RMK AO1 TSNO
K42J 141055Z AUTO 00000KT 10SM FEW029 06/06 A3000 RMK AO1 TSNO
K42J 141035Z AUTO 00000KT 10SM SCT029 06/05 A3000 RMK AO1 TSNO
K42J 141015Z AUTO 00000KT 10SM SCT027 06/06 A2999 RMK AO1 TSNO
K42J 140955Z AUTO 21003KT 10SM FEW030 07/06 A2999 RMK AO1 TSNO
K42J 140935Z AUTO 00000KT 10SM SCT032 SCT039 06/06 A2999 RMK AO1 TSNO
K42J 140915Z AUTO 00000KT 10SM BKN032 06/05 A3000 RMK AO1 TSNO
K42J 140855Z AUTO 00000KT 10SM BKN032 06/05 A2999 RMK AO1 TSNO
K42J 140835Z AUTO 16003KT 10SM FEW028 06/05 A3000 RMK AO1 TSNO
K42J 140815Z AUTO 15003KT 10SM CLR 05/04 A3000 RMK AO1 TSNO
K42J 140755Z AUTO 00000KT 10SM CLR 06/05 A3000 RMK AO1 TSNO
K42J 140735Z AUTO 00000KT 10SM CLR 04/03 A3001 RMK AO1 TSNO
K42J 140715Z AUTO 00000KT 10SM CLR 04/03 A3001 RMK AO1 TSNO
K42J 140655Z AUTO 00000KT 10SM CLR 04/03 A3001 RMK AO1 TSNO
K42J 140635Z AUTO 22003KT 10SM CLR 06/04 A3000 RMK AO1 TSNO
K42J 140555Z AUTO 23004KT 10SM CLR 06/03 A3000 RMK AO1 TSNO
K42J 140535Z AUTO 24005KT 10SM CLR 06/02 A3001 RMK AO1 TSNO
K42J 140515Z AUTO 00000KT 10SM CLR 06/02 A3001 RMK AO1 TSNO
K42J 140455Z AUTO 24004KT 10SM CLR 06/02 A3002 RMK AO1 TSNO
K42J 140435Z AUTO 24004KT 10SM CLR 05/01 A3002 RMK AO1 TSNO
K42J 140415Z AUTO 00000KT 10SM CLR 05/00 A3002 RMK AO1 TSNO
K42J 140355Z AUTO 22003KT 10SM CLR 04/00 A3003 RMK AO1 TSNO
K42J 140335Z AUTO 00000KT 10SM CLR 05/M01 A3003 RMK AO1 TSNO
K42J 140315Z AUTO 00000KT 10SM CLR 06/M02 A3003 RMK AO1 TSNO
K42J 140255Z AUTO 23003KT 10SM CLR 06/M02 A3003 RMK AO1 TSNO
K42J 140235Z AUTO 23003KT 10SM CLR 06/M02 A3004 RMK AO1 TSNO
K42J 140215Z AUTO 24004KT 10SM CLR 06/M02 A3004 RMK AO1 TSNO
K42J 140155Z AUTO 24005KT 10SM CLR 06/M02 A3004 RMK AO1 TSNO
K42J 140135Z AUTO 23005KT 10SM CLR 07/M02 A3004 RMK AO1 TSNO
K42J 140115Z AUTO 24005KT 10SM CLR 07/M02 A3004 RMK AO1 TSNO
K42J 140055Z AUTO 23005KT 10SM CLR 07/M01 A3004 RMK AO1 TSNO
K42J 140035Z AUTO 24008KT 10SM CLR 05/00 A3005 RMK AO1 TSNO
K42J 140015Z AUTO 00000KT 10SM CLR 05/00 A3004 RMK AO1 TSNO
K42J 132355Z AUTO 00000KT 10SM CLR 06/00 A3004 RMK AO1 TSNO
K42J 132335Z AUTO 00000KT 10SM CLR 06/M01 A3004 RMK AO1 TSNO
K42J 132315Z AUTO 00000KT 10SM CLR 07/M01 A3004 RMK AO1 TSNO
K42J 132255Z AUTO 00000KT 10SM CLR 08/M01 A3003 RMK AO1 TSNO
K42J 132235Z AUTO 26004KT 10SM CLR 11/M05 A3003 RMK AO1 TSNO
K42J 132215Z AUTO 28004KT 10SM CLR 12/M07 A3003 RMK AO1 TSNO
K42J 132155Z AUTO 27005KT 10SM CLR 13/M07 A3003 RMK AO1 TSNO
K42J 132135Z AUTO 28005KT 10SM CLR 14/M08 A3003 RMK AO1 TSNO
K42J 132115Z AUTO 27006KT 10SM CLR 14/M07 A3003 RMK AO1 TSNO
K42J 132055Z AUTO 28006KT 10SM CLR 14/M07 A3003 RMK AO1 TSNO
K42J 132035Z AUTO 29008KT 10SM CLR 15/M07 A3003 RMK AO1 TSNO
K42J 132015Z AUTO 30008KT 10SM CLR 14/M07 A3004 RMK AO1 TSNO
K42J 131955Z AUTO 25007KT 10SM CLR 14/M06 A3004 RMK AO1 TSNO
K42J 131935Z AUTO 26006KT 10SM CLR 14/M06 A3004 RMK AO1 TSNO
K42J 131915Z AUTO 30008KT 10SM CLR 14/M06 A3004 RMK AO1 TSNO
K42J 131855Z AUTO 26009KT 020V030 10SM CLR 14/M06 A3005 RMK AO1 TSNO
K42J 131835Z AUTO 32005KT 10SM CLR 13/M06 A3006 RMK AO1 TSNO